Αναφορές Αεροδρομίων

 

KSJC - San Jose, California, USA
Distance from station: ΒΑ 14km
Ενημερώθηκε: 26/01/2021 23:53
Συννεφιά
Συννεφιά
 Ανεμος από Ν
Ανεμος: Ν 20 km/h
Θερμοκρασία: 11°C
Σημείο Δρόσου: 1°C
Υγρασία: 50%
Βαρόμετρο: 1014.2 hPa
Clouds: Συννεφιά
Visibility: 16 km
Cloud details: Few Clouds 975 m
Σχεδόν νεφελώδης 2286 m
Συννεφιά 3353 m
2021/01/26 21:53 KSJC 262153Z 19011KT 10SM FEW032 BKN075 OVC110 11/01 A2995 RMK AO2 SLP141 T01060011
KNUQ - Moffett Nas/Mtn, California, USA
Distance from station: Β 14km
Ενημερώθηκε: 26/01/2021 23:30
Μερικώς νεφελώδης
Μερικώς νεφελώδης
 Ανεμος από ΝΝΔ
Ανεμος: ΝΝΔ 9 km/h, Ριπή: 20 km/h
Θερμοκρασία: 11°C
Σημείο Δρόσου: 1°C
Υγρασία: 50%
Βαρόμετρο: 1014.2 hPa
Clouds: Μερικώς νεφελώδης
Visibility: 16 km
Cloud details: Μερικώς νεφελώδης 1372 m
Μερικώς νεφελώδης 1524 m
2021/01/26 21:30 KNUQ 262130Z AUTO 20005G11KT 10SM SCT045 SCT050 11/01 A2995 RMK AO2
 
KPAO - Palo Alto, California, USA
Distance from station: ΒΒΔ 23km
Ενημερώθηκε: 26/01/2021 21:57
NOT Current
Σχεδόν νεφελώδης
Σχεδόν νεφελώδης
 Ανεμος από ΝΑ
Ανεμος: ΝΑ 13 km/h
Θερμοκρασία: 9°C
Wind Chill: 7°C
Σημείο Δρόσου: 1°C
Υγρασία: 58%
Βαρόμετρο: 1015.9 hPa
Clouds: Σχεδόν νεφελώδης
Visibility: 16 km
Cloud details: Σχεδόν νεφελώδης 914 m
2021/01/26 19:57 KPAO 261957Z 13007KT 10SM BKN030 09/01 A3000
KRHV - San Jose/Reid, California, USA
Distance from station: ΑΒΑ 19km
Ενημερώθηκε: 26/01/2021 23:47
Σχεδόν νεφελώδης
Σχεδόν νεφελώδης
 Ανεμος από ΝΝΑ
Ανεμος: ΝΝΑ 17 km/h
Θερμοκρασία: 11°C
Σημείο Δρόσου: 1°C
Υγρασία: 50%
Βαρόμετρο: 1014.6 hPa
Clouds: Σχεδόν νεφελώδης
Visibility: 16 km
Cloud details: Μερικώς νεφελώδης 3048 m
Σχεδόν νεφελώδης 3658 m
2021/01/26 21:47 KRHV 262147Z 15009KT 10SM SCT100 BKN120 11/01 A2996
 
KOAK - Oakland, California, USA
Distance from station: ΒΒΔ 50km
Ενημερώθηκε: 26/01/2021 23:53
Συννεφιά
Συννεφιά
 Ανεμος από ΝΝΑ
Ανεμος: ΝΝΑ 28 km/h
Θερμοκρασία: 12°C
Σημείο Δρόσου: 2°C
Υγρασία: 51%
Βαρόμετρο: 1013.5 hPa
Clouds: Συννεφιά
Visibility: 16 km
Cloud details: Few Clouds 1250 m
Σχεδόν νεφελώδης 1524 m
Συννεφιά 2134 m
2021/01/26 21:53 KOAK 262153Z 15015KT 10SM FEW041 BKN050 OVC070 12/02 A2993 RMK AO2 SLP134 T01220022
KSQL - San Carlos Airpo, California, USA
Distance from station: ΒΔ 34km
Ενημερώθηκε: 26/01/2021 22:48
Συννεφιά
Συννεφιά
 Ανεμος από Ν
Ανεμος: Ν 19 km/h
Θερμοκρασία: 10°C
Wind Chill: 7°C
Σημείο Δρόσου: 1°C
Υγρασία: 54%
Βαρόμετρο: 1014.9 hPa
Clouds: Συννεφιά
Visibility: 16 km
Cloud details: Σχεδόν νεφελώδης 1219 m
Συννεφιά 3353 m
2021/01/26 20:48 KSQL 262048Z 18010KT 10SM BKN040 OVC110 10/01 A2997
 
KSFO - San Francisco, California, USA
Distance from station: ΒΔ 49km
Ενημερώθηκε: 26/01/2021 22:56
Συννεφιά
Συννεφιά
 Ανεμος από Ν
Ανεμος: Ν 20 km/h
Θερμοκρασία: 11°C
Σημείο Δρόσου: 3°C
Υγρασία: 58%
Βαρόμετρο: 1014.2 hPa
Clouds: Συννεφιά
Visibility: 16 km
Cloud details: Few Clouds 1067 m
Σχεδόν νεφελώδης 2134 m
Συννεφιά 2591 m
2021/01/26 20:56 KSFO 262056Z 18011KT 10SM FEW035 BKN070 OVC085 11/03 A2995 RMK AO2 SLP141 T01110028 58012
KE16 - San Martin, California, USA
Distance from station: ΑΝΑ 43km
Ενημερώθηκε: 26/01/2021 23:35
Σχεδόν νεφελώδης
Σχεδόν νεφελώδης
 Ανεμος από Ν
Ανεμος: Ν 13 km/h
Θερμοκρασία: 9°C
Wind Chill: 7°C
Σημείο Δρόσου: 1°C
Υγρασία: 58%
Βαρόμετρο: 1015.9 hPa
Clouds: Σχεδόν νεφελώδης
Visibility: 16 km
Cloud details: Σχεδόν νεφελώδης 1097 m
2021/01/26 21:35 KE16 262135Z AUTO 19007KT 10SM BKN036 09/01 A3000 RMK AO2
 
KWVI - Watsonville, California, USA
Distance from station: ΝΝΑ 44km
Ενημερώθηκε: 26/01/2021 23:53
Συννεφιά
Συννεφιά
 Ανεμος από Ν
Ανεμος: Ν 15 km/h
Θερμοκρασία: 11°C
Σημείο Δρόσου: 4°C
Υγρασία: 62%
Βαρόμετρο: 1015.6 hPa
Clouds: Συννεφιά
Visibility: 16 km
Cloud details: Συννεφιά 2438 m
2021/01/26 21:53 KWVI 262153Z AUTO 18008KT 10SM OVC080 11/04 A2999 RMK AO2 SLP154 T01060039
KHAF - Half Moon Bay, California, USA
Distance from station: ΔΒΔ 50km
Ενημερώθηκε: 26/01/2021 23:35
Few Clouds
Few Clouds
 Ανεμος από Ν
Ανεμος: Ν 26 km/h, Ριπή: 35 km/h
Θερμοκρασία: 9°C
Wind Chill: 6°C
Σημείο Δρόσου: 4°C
Υγρασία: 71%
Βαρόμετρο: 1013.5 hPa
Clouds: Few Clouds
Visibility: 11 km
Cloud details: Few Clouds 1402 m
2021/01/26 21:35 KHAF 262135Z AUTO 17014G19KT 7SM FEW046 09/04 A2993 RMK AO2
 
KHWD - Hayward, California, USA
Distance from station: Β 44km
Ενημερώθηκε: 26/01/2021 22:54
Συννεφιά
Συννεφιά
 Ανεμος από ΝΝΑ
Ανεμος: ΝΝΑ 19 km/h
Θερμοκρασία: 10°C
Wind Chill: 7°C
Σημείο Δρόσου: 1°C
Υγρασία: 54%
Βαρόμετρο: 1014.2 hPa
Clouds: Συννεφιά
Visibility: 16 km
Cloud details: Μερικώς νεφελώδης 1189 m
Μερικώς νεφελώδης 1524 m
Συννεφιά 2591 m
2021/01/26 20:54 KHWD 262054Z 16010KT 10SM SCT039 SCT050 OVC085 10/01 A2995 RMK AO2 SLP153 T01000006 58014
KLVK - Livermore, California, USA
Distance from station: ΒΒΑ 51km
Ενημερώθηκε: 26/01/2021 23:53
Συννεφιά
Συννεφιά
 Ανεμος από Ν
Ανεμος: Ν 20 km/h
Θερμοκρασία: 9°C
Wind Chill: 6°C
Σημείο Δρόσου: -1°C
Υγρασία: 50%
Βαρόμετρο: 1013.5 hPa
Clouds: Συννεφιά
Visibility: 16 km
Cloud details: Σχεδόν νεφελώδης 2286 m
Συννεφιά 2743 m
2021/01/26 21:53 KLVK 262153Z 19011KT 10SM BKN075 OVC090 09/M01 A2993 RMK AO2 SLP134 T00941006